No particular awareness of the weather is required.    There are no Weather-warnings


Meteo18 Weather Cam more information Meteo18 Weather Cam


Thunder radar more information blitzortung!


Rain radar more information rain snow radar


Visit our other weather sites:

Template documentation
and downloads

And another site



Weather Underground History page Text

Daily Summary for January 22, 2017 Units:  Both    English   Metric
« Previous Day
Next Day »
Daily Weekly Monthly Yearly Custom
  High: Low: Average:
Temperature: 41.7 °F /  5.4 °C 22.3 °F /  -5.4 °C 30.9 °F /  -0.6 °C
Dew Point: 28.8 °F /  -1.8 °C 19.8 °F /  -6.8 °C 25 °F /  -3.9 °C
Humidity: 93 % 55 % 79 %
Wind Speed: 7 mph /  11.3 km/h - 1.5 mph /  2.4 km/h
Wind Gust: 10 mph /  16.1 km/h - -
Wind:- - South
Pressure: 30.3 in /  1026.0 hPa 30.2 in /  1023.2 hPa -
Precipitation: 0 in /  0.0 mm    
Historical Graphs
 
 
Tabular Data for January 22, 2017
Time Temperature Dew Point Pressure Wind Wind Speed Wind Gust Humidity Rainfall Rate (Hourly)
00:02 27.9 °F /  -2.3 °C 24.4 °F /  -4.2 °C 30.3 in /  1026.0 hPa NW 1 mph /  1.6 km/h   87 % 0 in /  0.0 mm
00:07 28 °F /  -2.2 °C 24.4 °F /  -4.2 °C 30.3 in /  1026.0 hPa North 2 mph /  3.2 km/h 2 mph /  3.2 km/h 86 % 0 in /  0.0 mm
00:12 27.7 °F /  -2.4 °C 24.1 °F /  -4.4 °C 30.3 in /  1026.0 hPa NNW 2 mph /  3.2 km/h 3 mph /  4.8 km/h 86 % 0 in /  0.0 mm
00:17 27.9 °F /  -2.3 °C 24.3 °F /  -4.3 °C 30.3 in /  1026.0 hPa NNW 2 mph /  3.2 km/h 3 mph /  4.8 km/h 86 % 0 in /  0.0 mm
00:22 28 °F /  -2.2 °C 24.4 °F /  -4.2 °C 30.3 in /  1025.6 hPa North 1 mph /  1.6 km/h 3 mph /  4.8 km/h 86 % 0 in /  0.0 mm
00:27 28.2 °F /  -2.1 °C 24.6 °F /  -4.1 °C 30.3 in /  1025.6 hPa NNW 1 mph /  1.6 km/h 3 mph /  4.8 km/h 86 % 0 in /  0.0 mm
00:32 28.6 °F /  -1.9 °C 25 °F /  -3.9 °C 30.3 in /  1025.6 hPa North 1 mph /  1.6 km/h 3 mph /  4.8 km/h 86 % 0 in /  0.0 mm
00:37 28.8 °F /  -1.8 °C 24.8 °F /  -4.0 °C 30.3 in /  1025.6 hPa North 1 mph /  1.6 km/h 3 mph /  4.8 km/h 85 % 0 in /  0.0 mm
00:42 28.8 °F /  -1.8 °C 24.8 °F /  -4.0 °C 30.3 in /  1025.6 hPa North 1 mph /  1.6 km/h 2 mph /  3.2 km/h 85 % 0 in /  0.0 mm
00:47 28.8 °F /  -1.8 °C 24.8 °F /  -4.0 °C 30.3 in /  1025.6 hPa Calm   2 mph /  3.2 km/h 85 % 0 in /  0.0 mm
00:52 28.4 °F /  -2.0 °C 24.4 °F /  -4.2 °C 30.3 in /  1025.6 hPa North 1 mph /  1.6 km/h 1 mph /  1.6 km/h 85 % 0 in /  0.0 mm
00:57 28.2 °F /  -2.1 °C 24.3 °F /  -4.3 °C 30.3 in /  1025.6 hPa Calm   1 mph /  1.6 km/h 85 % 0 in /  0.0 mm
01:02 28.2 °F /  -2.1 °C 24.6 °F /  -4.1 °C 30.3 in /  1025.6 hPa North 1 mph /  1.6 km/h 1 mph /  1.6 km/h 86 % 0 in /  0.0 mm
01:07 28 °F /  -2.2 °C 24.1 °F /  -4.4 °C 30.3 in /  1025.6 hPa Calm   2 mph /  3.2 km/h 85 % 0 in /  0.0 mm
01:12 27.3 °F /  -2.6 °C 23.7 °F /  -4.6 °C 30.3 in /  1025.6 hPa Calm   2 mph /  3.2 km/h 86 % 0 in /  0.0 mm
01:17 27.3 °F /  -2.6 °C 23.7 °F /  -4.6 °C 30.3 in /  1025.6 hPa Calm   2 mph /  3.2 km/h 86 % 0 in /  0.0 mm
01:22 27.7 °F /  -2.4 °C 24.3 °F /  -4.3 °C 30.3 in /  1025.6 hPa NNE 1 mph /  1.6 km/h 1 mph /  1.6 km/h 87 % 0 in /  0.0 mm
01:27 28 °F /  -2.2 °C 24.4 °F /  -4.2 °C 30.3 in /  1025.6 hPa NE 1 mph /  1.6 km/h 1 mph /  1.6 km/h 86 % 0 in /  0.0 mm
01:32 27.9 °F /  -2.3 °C 24.3 °F /  -4.3 °C 30.3 in /  1025.6 hPa NW 1 mph /  1.6 km/h 1 mph /  1.6 km/h 86 % 0 in /  0.0 mm
01:37 27.7 °F /  -2.4 °C 24.1 °F /  -4.4 °C 30.3 in /  1025.6 hPa NW 1 mph /  1.6 km/h 1 mph /  1.6 km/h 86 % 0 in /  0.0 mm
01:42 27.3 °F /  -2.6 °C 23.7 °F /  -4.6 °C 30.3 in /  1025.6 hPa Calm   2 mph /  3.2 km/h 86 % 0 in /  0.0 mm
01:47 27.7 °F /  -2.4 °C 24.3 °F /  -4.3 °C 30.3 in /  1025.6 hPa NW 1 mph /  1.6 km/h 2 mph /  3.2 km/h 87 % 0 in /  0.0 mm
01:52 27.9 °F /  -2.3 °C 24.4 °F /  -4.2 °C 30.3 in /  1025.3 hPa NW 1 mph /  1.6 km/h 2 mph /  3.2 km/h 87 % 0 in /  0.0 mm
01:57 26.8 °F /  -2.9 °C 22.8 °F /  -5.1 °C 30.3 in /  1025.3 hPa WNW 2 mph /  3.2 km/h 2 mph /  3.2 km/h 85 % 0 in /  0.0 mm
02:02 25.5 °F /  -3.6 °C 22.3 °F /  -5.4 °C 30.3 in /  1025.3 hPa WNW 2 mph /  3.2 km/h 2 mph /  3.2 km/h 87 % 0 in /  0.0 mm
02:07 24.6 °F /  -4.1 °C 21.6 °F /  -5.8 °C 30.3 in /  1025.3 hPa WNW 1 mph /  1.6 km/h 2 mph /  3.2 km/h 88 % 0 in /  0.0 mm
02:12 25.2 °F /  -3.8 °C 22.8 °F /  -5.1 °C 30.3 in /  1024.9 hPa Calm   2 mph /  3.2 km/h 91 % 0 in /  0.0 mm
02:17 25.9 °F /  -3.4 °C 23.4 °F /  -4.8 °C 30.3 in /  1024.9 hPa Calm   2 mph /  3.2 km/h 90 % 0 in /  0.0 mm
02:22 26.2 °F /  -3.2 °C 23.4 °F /  -4.8 °C 30.3 in /  1024.9 hPa Calm   1 mph /  1.6 km/h 89 % 0 in /  0.0 mm
02:27 26.4 °F /  -3.1 °C 23.5 °F /  -4.7 °C 30.3 in /  1024.9 hPa Calm   1 mph /  1.6 km/h 89 % 0 in /  0.0 mm
02:32 26.2 °F /  -3.2 °C 23.2 °F /  -4.9 °C 30.3 in /  1024.9 hPa NNE 1 mph /  1.6 km/h 1 mph /  1.6 km/h 88 % 0 in /  0.0 mm
02:37 26.1 °F /  -3.3 °C 23 °F /  -5.0 °C 30.3 in /  1024.9 hPa NNE 2 mph /  3.2 km/h 2 mph /  3.2 km/h 88 % 0 in /  0.0 mm
02:42 25.9 °F /  -3.4 °C 22.8 °F /  -5.1 °C 30.3 in /  1024.9 hPa Calm   2 mph /  3.2 km/h 88 % 0 in /  0.0 mm
02:47 25.2 °F /  -3.8 °C 21.9 °F /  -5.6 °C 30.3 in /  1024.9 hPa Calm   2 mph /  3.2 km/h 87 % 0 in /  0.0 mm
02:52 25.7 °F /  -3.5 °C 23.2 °F /  -4.9 °C 30.3 in /  1025.3 hPa Calm   2 mph /  3.2 km/h 90 % 0 in /  0.0 mm
02:57 25.7 °F /  -3.5 °C 23 °F /  -5.0 °C 30.3 in /  1025.3 hPa Calm   1 mph /  1.6 km/h 89 % 0 in /  0.0 mm
03:02 25.2 °F /  -3.8 °C 22.1 °F /  -5.5 °C 30.3 in /  1025.3 hPa Calm   1 mph /  1.6 km/h 88 % 0 in /  0.0 mm
03:07 24.4 °F /  -4.2 °C 21.4 °F /  -5.9 °C 30.3 in /  1024.9 hPa Calm   1 mph /  1.6 km/h 88 % 0 in /  0.0 mm
03:12 24.4 °F /  -4.2 °C 21.7 °F /  -5.7 °C 30.3 in /  1024.9 hPa Calm   1 mph /  1.6 km/h 89 % 0 in /  0.0 mm
03:17 23.7 °F /  -4.6 °C 21 °F /  -6.1 °C 30.3 in /  1024.9 hPa Calm   1 mph /  1.6 km/h 89 % 0 in /  0.0 mm
03:22 24.1 °F /  -4.4 °C 22.1 °F /  -5.5 °C 30.3 in /  1024.9 hPa Calm   1 mph /  1.6 km/h 92 % 0 in /  0.0 mm
03:27 24.8 °F /  -4.0 °C 22.5 °F /  -5.3 °C 30.3 in /  1024.9 hPa Calm   1 mph /  1.6 km/h 91 % 0 in /  0.0 mm
03:32 25.5 °F /  -3.6 °C 23.5 °F /  -4.7 °C 30.3 in /  1024.9 hPa Calm   1 mph /  1.6 km/h 92 % 0 in /  0.0 mm
03:37 25.2 °F /  -3.8 °C 22.6 °F /  -5.2 °C 30.3 in /  1024.9 hPa Calm   1 mph /  1.6 km/h 90 % 0 in /  0.0 mm
03:42 25 °F /  -3.9 °C 22.5 °F /  -5.3 °C 30.3 in /  1024.9 hPa WNW 1 mph /  1.6 km/h 1 mph /  1.6 km/h 90 % 0 in /  0.0 mm
03:47 24.6 °F /  -4.1 °C 22.5 °F /  -5.3 °C 30.3 in /  1024.9 hPa Calm   1 mph /  1.6 km/h 91 % 0 in /  0.0 mm
03:52 25 °F /  -3.9 °C 23 °F /  -5.0 °C 30.3 in /  1024.9 hPa Calm   1 mph /  1.6 km/h 92 % 0 in /  0.0 mm
03:57 25.3 °F /  -3.7 °C 23.4 °F /  -4.8 °C 30.3 in /  1024.9 hPa Calm   1 mph /  1.6 km/h 92 % 0 in /  0.0 mm
04:02 25.5 °F /  -3.6 °C 23.5 °F /  -4.7 °C 30.3 in /  1024.9 hPa Calm   1 mph /  1.6 km/h 92 % 0 in /  0.0 mm
04:07 25.9 °F /  -3.4 °C 23.9 °F /  -4.5 °C 30.3 in /  1024.9 hPa Calm   1 mph /  1.6 km/h 92 % 0 in /  0.0 mm
04:17 26.2 °F /  -3.2 °C 23.9 °F /  -4.5 °C 30.3 in /  1024.9 hPa Calm   1 mph /  1.6 km/h 91 % 0 in /  0.0 mm
04:22 26.4 °F /  -3.1 °C 23.9 °F /  -4.5 °C 30.3 in /  1024.9 hPa Calm   1 mph /  1.6 km/h 90 % 0 in /  0.0 mm
04:27 25.9 °F /  -3.4 °C 23 °F /  -5.0 °C 30.3 in /  1024.9 hPa Calm     89 % 0 in /  0.0 mm
04:32 25.7 °F /  -3.5 °C 23.2 °F /  -4.9 °C 30.3 in /  1024.9 hPa Calm     90 % 0 in /  0.0 mm
04:37 25.5 °F /  -3.6 °C 23 °F /  -5.0 °C 30.3 in /  1024.9 hPa Calm     90 % 0 in /  0.0 mm
04:42 24.4 °F /  -4.2 °C 21.7 °F /  -5.7 °C 30.3 in /  1024.9 hPa Calm   1 mph /  1.6 km/h 89 % 0 in /  0.0 mm
04:47 24.3 °F /  -4.3 °C 22.1 °F /  -5.5 °C 30.3 in /  1024.9 hPa Calm   1 mph /  1.6 km/h 91 % 0 in /  0.0 mm
04:52 23.7 °F /  -4.6 °C 21.2 °F /  -6.0 °C 30.3 in /  1024.9 hPa Calm   1 mph /  1.6 km/h 90 % 0 in /  0.0 mm
04:57 23.2 °F /  -4.9 °C 20.7 °F /  -6.3 °C 30.3 in /  1024.9 hPa Calm   1 mph /  1.6 km/h 90 % 0 in /  0.0 mm
05:02 23.2 °F /  -4.9 °C 21.2 °F /  -6.0 °C 30.3 in /  1024.9 hPa Calm   1 mph /  1.6 km/h 92 % 0 in /  0.0 mm
05:12 24.4 °F /  -4.2 °C 22.6 °F /  -5.2 °C 30.3 in /  1024.6 hPa NW 1 mph /  1.6 km/h   93 % 0 in /  0.0 mm
05:17 25.3 °F /  -3.7 °C 23.5 °F /  -4.7 °C 30.3 in /  1024.6 hPa Calm   1 mph /  1.6 km/h 93 % 0 in /  0.0 mm
05:22 25.3 °F /  -3.7 °C 23 °F /  -5.0 °C 30.3 in /  1024.6 hPa North 1 mph /  1.6 km/h 1 mph /  1.6 km/h 91 % 0 in /  0.0 mm
05:32 23.7 °F /  -4.6 °C 21.2 °F /  -6.0 °C 30.3 in /  1024.6 hPa Calm   2 mph /  3.2 km/h 90 % 0 in /  0.0 mm
05:37 23 °F /  -5.0 °C 20.5 °F /  -6.4 °C 30.3 in /  1024.6 hPa NNE 1 mph /  1.6 km/h 2 mph /  3.2 km/h 90 % 0 in /  0.0 mm
05:42 22.8 °F /  -5.1 °C 20.8 °F /  -6.2 °C 30.3 in /  1024.6 hPa North 1 mph /  1.6 km/h 2 mph /  3.2 km/h 92 % 0 in /  0.0 mm
05:47 23.2 °F /  -4.9 °C 21.4 °F /  -5.9 °C 30.3 in /  1024.9 hPa Calm   2 mph /  3.2 km/h 93 % 0 in /  0.0 mm
05:52 23.2 °F /  -4.9 °C 21.2 °F /  -6.0 °C 30.3 in /  1024.6 hPa Calm   2 mph /  3.2 km/h 92 % 0 in /  0.0 mm
05:57 23.2 °F /  -4.9 °C 21.2 °F /  -6.0 °C 30.3 in /  1024.6 hPa Calm   1 mph /  1.6 km/h 92 % 0 in /  0.0 mm
06:02 22.6 °F /  -5.2 °C 20.5 °F /  -6.4 °C 30.3 in /  1024.6 hPa Calm   1 mph /  1.6 km/h 91 % 0 in /  0.0 mm
06:07 22.6 °F /  -5.2 °C 20.7 °F /  -6.3 °C 30.3 in /  1024.6 hPa Calm   1 mph /  1.6 km/h 92 % 0 in /  0.0 mm
06:12 22.8 °F /  -5.1 °C 21 °F /  -6.1 °C 30.3 in /  1024.6 hPa Calm   1 mph /  1.6 km/h 93 % 0 in /  0.0 mm
06:17 23.2 °F /  -4.9 °C 21.4 °F /  -5.9 °C 30.3 in /  1024.6 hPa Calm   1 mph /  1.6 km/h 93 % 0 in /  0.0 mm
06:22 23.7 °F /  -4.6 °C 21.9 °F /  -5.6 °C 30.3 in /  1024.6 hPa Calm   1 mph /  1.6 km/h 93 % 0 in /  0.0 mm
06:32 24.3 °F /  -4.3 °C 22.5 °F /  -5.3 °C 30.3 in /  1024.6 hPa Calm   1 mph /  1.6 km/h 93 % 0 in /  0.0 mm
06:42 24.4 °F /  -4.2 °C 21.9 °F /  -5.6 °C 30.3 in /  1024.6 hPa Calm   2 mph /  3.2 km/h 90 % 0 in /  0.0 mm
06:47 24.1 °F /  -4.4 °C 21.9 °F /  -5.6 °C 30.3 in /  1024.6 hPa North 1 mph /  1.6 km/h 2 mph /  3.2 km/h 91 % 0 in /  0.0 mm
06:57 22.3 °F /  -5.4 °C 19.8 °F /  -6.8 °C 30.3 in /  1024.3 hPa North 1 mph /  1.6 km/h 1 mph /  1.6 km/h 90 % 0 in /  0.0 mm
07:02 22.3 °F /  -5.4 °C 20.1 °F /  -6.6 °C 30.3 in /  1024.3 hPa NNE 1 mph /  1.6 km/h 1 mph /  1.6 km/h 91 % 0 in /  0.0 mm
07:12 22.8 °F /  -5.1 °C 21 °F /  -6.1 °C 30.3 in /  1024.3 hPa North 1 mph /  1.6 km/h 1 mph /  1.6 km/h 93 % 0 in /  0.0 mm
07:17 23.5 °F /  -4.7 °C 21.7 °F /  -5.7 °C 30.3 in /  1024.3 hPa NNW 1 mph /  1.6 km/h 1 mph /  1.6 km/h 93 % 0 in /  0.0 mm
07:22 24.3 °F /  -4.3 °C 22.1 °F /  -5.5 °C 30.3 in /  1024.3 hPa Calm   1 mph /  1.6 km/h 91 % 0 in /  0.0 mm
07:32 25 °F /  -3.9 °C 21.9 °F /  -5.6 °C 30.3 in /  1024.3 hPa Calm   1 mph /  1.6 km/h 88 % 0 in /  0.0 mm
07:37 25 °F /  -3.9 °C 21.7 °F /  -5.7 °C 30.3 in /  1024.3 hPa Calm   1 mph /  1.6 km/h 87 % 0 in /  0.0 mm
07:42 24.6 °F /  -4.1 °C 21.4 °F /  -5.9 °C 30.3 in /  1024.3 hPa Calm   1 mph /  1.6 km/h 87 % 0 in /  0.0 mm
07:47 24.4 °F /  -4.2 °C 21.2 °F /  -6.0 °C 30.3 in /  1024.3 hPa Calm   1 mph /  1.6 km/h 87 % 0 in /  0.0 mm
07:52 24.6 °F /  -4.1 °C 21.6 °F /  -5.8 °C 30.3 in /  1024.3 hPa Calm   1 mph /  1.6 km/h 88 % 0 in /  0.0 mm
07:57 25.2 °F /  -3.8 °C 21.9 °F /  -5.6 °C 30.3 in /  1024.3 hPa Calm     87 % 0 in /  0.0 mm
08:02 25.2 °F /  -3.8 °C 21.6 °F /  -5.8 °C 30.3 in /  1024.3 hPa Calm     86 % 0 in /  0.0 mm
08:12 25.3 °F /  -3.7 °C 21.7 °F /  -5.7 °C 30.3 in /  1024.3 hPa NW 1 mph /  1.6 km/h 1 mph /  1.6 km/h 86 % 0 in /  0.0 mm
08:17 26.1 °F /  -3.3 °C 21.9 °F /  -5.6 °C 30.3 in /  1024.3 hPa Calm   1 mph /  1.6 km/h 84 % 0 in /  0.0 mm
08:22 26.2 °F /  -3.2 °C 21.7 °F /  -5.7 °C 30.3 in /  1024.3 hPa Calm   1 mph /  1.6 km/h 83 % 0 in /  0.0 mm
08:27 25.3 °F /  -3.7 °C 20.8 °F /  -6.2 °C 30.3 in /  1024.3 hPa Calm   1 mph /  1.6 km/h 83 % 0 in /  0.0 mm
08:32 24.6 °F /  -4.1 °C 21 °F /  -6.1 °C 30.3 in /  1024.3 hPa North 1 mph /  1.6 km/h 1 mph /  1.6 km/h 86 % 0 in /  0.0 mm
08:37 23.7 °F /  -4.6 °C 20.5 °F /  -6.4 °C 30.3 in /  1024.3 hPa Calm   2 mph /  3.2 km/h 87 % 0 in /  0.0 mm
08:42 24.1 °F /  -4.4 °C 20.8 °F /  -6.2 °C 30.3 in /  1024.3 hPa NNW 1 mph /  1.6 km/h 2 mph /  3.2 km/h 87 % 0 in /  0.0 mm
08:47 24.4 °F /  -4.2 °C 21.2 °F /  -6.0 °C 30.3 in /  1024.3 hPa NNW 1 mph /  1.6 km/h 2 mph /  3.2 km/h 87 % 0 in /  0.0 mm
08:52 25 °F /  -3.9 °C 21.2 °F /  -6.0 °C 30.3 in /  1024.3 hPa NW 1 mph /  1.6 km/h 2 mph /  3.2 km/h 85 % 0 in /  0.0 mm
08:57 25.2 °F /  -3.8 °C 21 °F /  -6.1 °C 30.3 in /  1024.3 hPa Calm   3 mph /  4.8 km/h 84 % 0 in /  0.0 mm
09:02 25.2 °F /  -3.8 °C 21 °F /  -6.1 °C 30.3 in /  1024.3 hPa Calm   3 mph /  4.8 km/h 84 % 0 in /  0.0 mm
09:12 26.2 °F /  -3.2 °C 21.6 °F /  -5.8 °C 30.3 in /  1024.6 hPa Calm   1 mph /  1.6 km/h 82 % 0 in /  0.0 mm
09:17 26.1 °F /  -3.3 °C 21 °F /  -6.1 °C 30.3 in /  1024.3 hPa Calm   2 mph /  3.2 km/h 81 % 0 in /  0.0 mm
09:22 25.5 °F /  -3.6 °C 20.5 °F /  -6.4 °C 30.3 in /  1024.6 hPa Calm   2 mph /  3.2 km/h 81 % 0 in /  0.0 mm
09:32 24.8 °F /  -4.0 °C 20.7 °F /  -6.3 °C 30.3 in /  1024.6 hPa East 1 mph /  1.6 km/h 2 mph /  3.2 km/h 84 % 0 in /  0.0 mm
09:37 24.6 °F /  -4.1 °C 21 °F /  -6.1 °C 30.3 in /  1024.6 hPa ENE 1 mph /  1.6 km/h 1 mph /  1.6 km/h 86 % 0 in /  0.0 mm
09:42 24.3 °F /  -4.3 °C 21 °F /  -6.1 °C 30.3 in /  1024.6 hPa ENE 1 mph /  1.6 km/h 1 mph /  1.6 km/h 87 % 0 in /  0.0 mm
09:47 24.3 °F /  -4.3 °C 21 °F /  -6.1 °C 30.3 in /  1024.6 hPa Calm   2 mph /  3.2 km/h 87 % 0 in /  0.0 mm
09:52 24.4 °F /  -4.2 °C 21.2 °F /  -6.0 °C 30.3 in /  1024.6 hPa Calm   2 mph /  3.2 km/h 87 % 0 in /  0.0 mm
10:02 24.8 °F /  -4.0 °C 21.6 °F /  -5.8 °C 30.3 in /  1024.6 hPa Calm   2 mph /  3.2 km/h 87 % 0 in /  0.0 mm
10:07 25 °F /  -3.9 °C 21.7 °F /  -5.7 °C 30.3 in /  1024.6 hPa Calm   1 mph /  1.6 km/h 87 % 0 in /  0.0 mm
10:12 25.5 °F /  -3.6 °C 21.9 °F /  -5.6 °C 30.3 in /  1024.6 hPa Calm   1 mph /  1.6 km/h 86 % 0 in /  0.0 mm
10:22 26.2 °F /  -3.2 °C 22.3 °F /  -5.4 °C 30.3 in /  1024.6 hPa Calm   1 mph /  1.6 km/h 85 % 0 in /  0.0 mm
10:27 26.8 °F /  -2.9 °C 22.8 °F /  -5.1 °C 30.3 in /  1024.6 hPa Calm   1 mph /  1.6 km/h 85 % 0 in /  0.0 mm
10:32 27.3 °F /  -2.6 °C 23.4 °F /  -4.8 °C 30.3 in /  1024.6 hPa Calm   1 mph /  1.6 km/h 85 % 0 in /  0.0 mm
10:37 27.3 °F /  -2.6 °C 23.2 °F /  -4.9 °C 30.3 in /  1024.6 hPa Calm   1 mph /  1.6 km/h 84 % 0 in /  0.0 mm
10:42 27.3 °F /  -2.6 °C 23.4 °F /  -4.8 °C 30.3 in /  1024.6 hPa Calm   1 mph /  1.6 km/h 85 % 0 in /  0.0 mm
10:52 28.2 °F /  -2.1 °C 24.6 °F /  -4.1 °C 30.3 in /  1024.6 hPa Calm   1 mph /  1.6 km/h 86 % 0 in /  0.0 mm
10:57 28.9 °F /  -1.7 °C 25.3 °F /  -3.7 °C 30.3 in /  1024.6 hPa Calm     86 % 0 in /  0.0 mm
11:02 29.8 °F /  -1.2 °C 25.9 °F /  -3.4 °C 30.3 in /  1024.6 hPa Calm     85 % 0 in /  0.0 mm
11:07 30.4 °F /  -0.9 °C 25.9 °F /  -3.4 °C 30.3 in /  1024.9 hPa Calm     83 % 0 in /  0.0 mm
11:12 30.4 °F /  -0.9 °C 25.3 °F /  -3.7 °C 30.3 in /  1024.9 hPa Calm     81 % 0 in /  0.0 mm
11:17 30.6 °F /  -0.8 °C 25.7 °F /  -3.5 °C 30.3 in /  1024.6 hPa Calm   1 mph /  1.6 km/h 82 % 0 in /  0.0 mm
11:22 31.1 °F /  -0.5 °C 25.9 °F /  -3.4 °C 30.3 in /  1024.6 hPa Calm   1 mph /  1.6 km/h 81 % 0 in /  0.0 mm
11:27 31.6 °F /  -0.2 °C 26.2 °F /  -3.2 °C 30.3 in /  1024.6 hPa Calm   1 mph /  1.6 km/h 80 % 0 in /  0.0 mm
11:32 31.8 °F /  -0.1 °C 26.4 °F /  -3.1 °C 30.3 in /  1024.6 hPa Calm   1 mph /  1.6 km/h 80 % 0 in /  0.0 mm
11:37 32.2 °F /  0.1 °C 26.8 °F /  -2.9 °C 30.3 in /  1024.6 hPa Calm   1 mph /  1.6 km/h 80 % 0 in /  0.0 mm
11:42 32.5 °F /  0.3 °C 27.1 °F /  -2.7 °C 30.3 in /  1024.6 hPa Calm   1 mph /  1.6 km/h 80 % 0 in /  0.0 mm
11:47 32.7 °F /  0.4 °C 27.3 °F /  -2.6 °C 30.3 in /  1024.6 hPa Calm   1 mph /  1.6 km/h 80 % 0 in /  0.0 mm
11:52 32.9 °F /  0.5 °C 27.1 °F /  -2.7 °C 30.3 in /  1024.3 hPa Calm   1 mph /  1.6 km/h 79 % 0 in /  0.0 mm
12:02 34.2 °F /  1.2 °C 28 °F /  -2.2 °C 30.3 in /  1024.3 hPa Calm   1 mph /  1.6 km/h 78 % 0 in /  0.0 mm
12:07 34.7 °F /  1.5 °C 27.7 °F /  -2.4 °C 30.3 in /  1024.3 hPa East 1 mph /  1.6 km/h 1 mph /  1.6 km/h 75 % 0 in /  0.0 mm
12:12 34.9 °F /  1.6 °C 26.8 °F /  -2.9 °C 30.3 in /  1024.3 hPa SE 1 mph /  1.6 km/h 2 mph /  3.2 km/h 72 % 0 in /  0.0 mm
12:17 35.2 °F /  1.8 °C 28 °F /  -2.2 °C 30.3 in /  1024.3 hPa Calm   2 mph /  3.2 km/h 75 % 0 in /  0.0 mm
12:22 36 °F /  2.2 °C 27.9 °F /  -2.3 °C 30.3 in /  1024.3 hPa East 2 mph /  3.2 km/h 2 mph /  3.2 km/h 72 % 0 in /  0.0 mm
12:27 36 °F /  2.2 °C 26.8 °F /  -2.9 °C 30.3 in /  1024.3 hPa East 2 mph /  3.2 km/h 2 mph /  3.2 km/h 69 % 0 in /  0.0 mm
12:32 36.1 °F /  2.3 °C 26.6 °F /  -3.0 °C 30.3 in /  1024.3 hPa East 4 mph /  6.4 km/h 4 mph /  6.4 km/h 68 % 0 in /  0.0 mm
12:37 36.1 °F /  2.3 °C 26.2 °F /  -3.2 °C 30.3 in /  1024.3 hPa ENE 4 mph /  6.4 km/h 4 mph /  6.4 km/h 67 % 0 in /  0.0 mm
12:42 36.1 °F /  2.3 °C 27.3 °F /  -2.6 °C 30.3 in /  1024.3 hPa ENE 3 mph /  4.8 km/h 5 mph /  8.0 km/h 70 % 0 in /  0.0 mm
12:47 36.1 °F /  2.3 °C 26.6 °F /  -3.0 °C 30.3 in /  1024.3 hPa East 3 mph /  4.8 km/h 5 mph /  8.0 km/h 68 % 0 in /  0.0 mm
12:52 36.1 °F /  2.3 °C 27.3 °F /  -2.6 °C 30.3 in /  1024.3 hPa ENE 1 mph /  1.6 km/h 5 mph /  8.0 km/h 70 % 0 in /  0.0 mm
12:57 36.3 °F /  2.4 °C 27.1 °F /  -2.7 °C 30.3 in /  1024.3 hPa East 2 mph /  3.2 km/h 5 mph /  8.0 km/h 69 % 0 in /  0.0 mm
13:02 36.3 °F /  2.4 °C 26.8 °F /  -2.9 °C 30.2 in /  1023.9 hPa ENE 4 mph /  6.4 km/h 5 mph /  8.0 km/h 68 % 0 in /  0.0 mm
13:07 36.5 °F /  2.5 °C 27.3 °F /  -2.6 °C 30.2 in /  1023.9 hPa Calm   5 mph /  8.0 km/h 69 % 0 in /  0.0 mm
13:12 36.9 °F /  2.7 °C 27.3 °F /  -2.6 °C 30.2 in /  1023.9 hPa ENE 3 mph /  4.8 km/h 5 mph /  8.0 km/h 68 % 0 in /  0.0 mm
13:17 37 °F /  2.8 °C 27.1 °F /  -2.7 °C 30.2 in /  1023.9 hPa ENE 2 mph /  3.2 km/h 5 mph /  8.0 km/h 67 % 0 in /  0.0 mm
13:22 37 °F /  2.8 °C 27.5 °F /  -2.5 °C 30.2 in /  1023.9 hPa NNE 2 mph /  3.2 km/h 5 mph /  8.0 km/h 68 % 0 in /  0.0 mm
13:32 37.2 °F /  2.9 °C 27 °F /  -2.8 °C 30.2 in /  1023.6 hPa NE 2 mph /  3.2 km/h 5 mph /  8.0 km/h 66 % 0 in /  0.0 mm
13:37 37.2 °F /  2.9 °C 27.3 °F /  -2.6 °C 30.2 in /  1023.6 hPa NE 2 mph /  3.2 km/h 5 mph /  8.0 km/h 67 % 0 in /  0.0 mm
13:42 37.6 °F /  3.1 °C 27.3 °F /  -2.6 °C 30.2 in /  1023.6 hPa NNE 3 mph /  4.8 km/h 4 mph /  6.4 km/h 66 % 0 in /  0.0 mm
13:47 37.8 °F /  3.2 °C 27.5 °F /  -2.5 °C 30.2 in /  1023.6 hPa NE 2 mph /  3.2 km/h 6 mph /  9.7 km/h 66 % 0 in /  0.0 mm
13:52 37.9 °F /  3.3 °C 28 °F /  -2.2 °C 30.2 in /  1023.6 hPa NNE 5 mph /  8.0 km/h 6 mph /  9.7 km/h 67 % 0 in /  0.0 mm
13:57 38.5 °F /  3.6 °C 27 °F /  -2.8 °C 30.2 in /  1023.2 hPa NNW 1 mph /  1.6 km/h 6 mph /  9.7 km/h 63 % 0 in /  0.0 mm
14:02 38.7 °F /  3.7 °C 27.5 °F /  -2.5 °C 30.2 in /  1023.2 hPa NNE 1 mph /  1.6 km/h 6 mph /  9.7 km/h 64 % 0 in /  0.0 mm
14:07 39 °F /  3.9 °C 27.5 °F /  -2.5 °C 30.2 in /  1023.2 hPa North 3 mph /  4.8 km/h 7 mph /  11.3 km/h 63 % 0 in /  0.0 mm
14:12 39.6 °F /  4.2 °C 28 °F /  -2.2 °C 30.2 in /  1023.2 hPa NNW 2 mph /  3.2 km/h 7 mph /  11.3 km/h 63 % 0 in /  0.0 mm
14:22 39.9 °F /  4.4 °C 27.5 °F /  -2.5 °C 30.2 in /  1023.2 hPa NNE 5 mph /  8.0 km/h 8 mph /  12.9 km/h 61 % 0 in /  0.0 mm
14:27 40.5 °F /  4.7 °C 27.3 °F /  -2.6 °C 30.2 in /  1023.2 hPa NNE 4 mph /  6.4 km/h 7 mph /  11.3 km/h 59 % 0 in /  0.0 mm
14:32 40.6 °F /  4.8 °C 26.2 °F /  -3.2 °C 30.2 in /  1023.2 hPa NNE 4 mph /  6.4 km/h 7 mph /  11.3 km/h 56 % 0 in /  0.0 mm
14:37 40.8 °F /  4.9 °C 27.1 °F /  -2.7 °C 30.2 in /  1023.2 hPa NE 5 mph /  8.0 km/h 8 mph /  12.9 km/h 58 % 0 in /  0.0 mm
14:42 41.2 °F /  5.1 °C 27.5 °F /  -2.5 °C 30.2 in /  1023.2 hPa North 6 mph /  9.7 km/h 8 mph /  12.9 km/h 58 % 0 in /  0.0 mm
14:47 41.2 °F /  5.1 °C 26.6 °F /  -3.0 °C 30.2 in /  1023.2 hPa NE 6 mph /  9.7 km/h 9 mph /  14.5 km/h 56 % 0 in /  0.0 mm
14:52 41.5 °F /  5.3 °C 27.5 °F /  -2.5 °C 30.2 in /  1023.2 hPa North 3 mph /  4.8 km/h 9 mph /  14.5 km/h 57 % 0 in /  0.0 mm
14:57 41.5 °F /  5.3 °C 27 °F /  -2.8 °C 30.2 in /  1023.2 hPa NE 2 mph /  3.2 km/h 9 mph /  14.5 km/h 56 % 0 in /  0.0 mm
15:02 41.5 °F /  5.3 °C 27.9 °F /  -2.3 °C 30.2 in /  1023.2 hPa NNE 5 mph /  8.0 km/h 9 mph /  14.5 km/h 58 % 0 in /  0.0 mm
15:07 41.5 °F /  5.3 °C 27.5 °F /  -2.5 °C 30.2 in /  1023.2 hPa ENE 2 mph /  3.2 km/h 8 mph /  12.9 km/h 57 % 0 in /  0.0 mm
15:12 41.5 °F /  5.3 °C 26.6 °F /  -3.0 °C 30.2 in /  1023.2 hPa NE 5 mph /  8.0 km/h 8 mph /  12.9 km/h 55 % 0 in /  0.0 mm
15:17 41.5 °F /  5.3 °C 27.9 °F /  -2.3 °C 30.2 in /  1023.2 hPa North 2 mph /  3.2 km/h 6 mph /  9.7 km/h 58 % 0 in /  0.0 mm
15:27 41.7 °F /  5.4 °C 27.7 °F /  -2.4 °C 30.2 in /  1023.2 hPa NE 4 mph /  6.4 km/h 6 mph /  9.7 km/h 57 % 0 in /  0.0 mm
15:32 41.5 °F /  5.3 °C 27 °F /  -2.8 °C 30.2 in /  1023.2 hPa WNW 2 mph /  3.2 km/h 6 mph /  9.7 km/h 56 % 0 in /  0.0 mm
15:37 41.4 °F /  5.2 °C 26.8 °F /  -2.9 °C 30.2 in /  1023.2 hPa NNE 3 mph /  4.8 km/h 7 mph /  11.3 km/h 56 % 0 in /  0.0 mm
15:42 41 °F /  5.0 °C 27 °F /  -2.8 °C 30.2 in /  1023.2 hPa NNW 1 mph /  1.6 km/h 7 mph /  11.3 km/h 57 % 0 in /  0.0 mm
15:47 40.8 °F /  4.9 °C 26.8 °F /  -2.9 °C 30.2 in /  1023.2 hPa NNW 1 mph /  1.6 km/h 7 mph /  11.3 km/h 57 % 0 in /  0.0 mm
15:52 40.8 °F /  4.9 °C 27.7 °F /  -2.4 °C 30.2 in /  1023.2 hPa Calm   7 mph /  11.3 km/h 59 % 0 in /  0.0 mm
16:02 40.5 °F /  4.7 °C 28 °F /  -2.2 °C 30.2 in /  1023.6 hPa NNE 3 mph /  4.8 km/h 6 mph /  9.7 km/h 61 % 0 in /  0.0 mm
16:07 40.3 °F /  4.6 °C 28.2 °F /  -2.1 °C 30.2 in /  1023.6 hPa North 3 mph /  4.8 km/h 4 mph /  6.4 km/h 62 % 0 in /  0.0 mm
16:12 40.1 °F /  4.5 °C 28 °F /  -2.2 °C 30.2 in /  1023.6 hPa NNW 1 mph /  1.6 km/h 4 mph /  6.4 km/h 62 % 0 in /  0.0 mm
16:17 39.9 °F /  4.4 °C 28.4 °F /  -2.0 °C 30.2 in /  1023.6 hPa Calm   4 mph /  6.4 km/h 63 % 0 in /  0.0 mm
16:22 39.9 °F /  4.4 °C 28.4 °F /  -2.0 °C 30.2 in /  1023.6 hPa North 3 mph /  4.8 km/h 3 mph /  4.8 km/h 63 % 0 in /  0.0 mm
16:27 39.7 °F /  4.3 °C 28.2 °F /  -2.1 °C 30.2 in /  1023.6 hPa NNW 2 mph /  3.2 km/h 5 mph /  8.0 km/h 63 % 0 in /  0.0 mm
16:37 39.2 °F /  4.0 °C 28.4 °F /  -2.0 °C 30.2 in /  1023.6 hPa NNE 3 mph /  4.8 km/h 6 mph /  9.7 km/h 65 % 0 in /  0.0 mm
16:42 38.8 °F /  3.8 °C 28.4 °F /  -2.0 °C 30.2 in /  1023.6 hPa NNW 3 mph /  4.8 km/h 6 mph /  9.7 km/h 66 % 0 in /  0.0 mm
16:47 38.5 °F /  3.6 °C 28.8 °F /  -1.8 °C 30.2 in /  1023.2 hPa North 3 mph /  4.8 km/h 6 mph /  9.7 km/h 68 % 0 in /  0.0 mm
16:52 38.1 °F /  3.4 °C 28.6 °F /  -1.9 °C 30.2 in /  1023.2 hPa NNW 4 mph /  6.4 km/h 6 mph /  9.7 km/h 68 % 0 in /  0.0 mm
16:57 37.9 °F /  3.3 °C 28.4 °F /  -2.0 °C 30.2 in /  1023.2 hPa NNW 1 mph /  1.6 km/h 6 mph /  9.7 km/h 68 % 0 in /  0.0 mm
17:02 37.9 °F /  3.3 °C 28.4 °F /  -2.0 °C 30.2 in /  1023.2 hPa WNW 1 mph /  1.6 km/h 6 mph /  9.7 km/h 68 % 0 in /  0.0 mm
17:07 37.9 °F /  3.3 °C 28 °F /  -2.2 °C 30.2 in /  1023.6 hPa NW 1 mph /  1.6 km/h 5 mph /  8.0 km/h 67 % 0 in /  0.0 mm
17:12 37.8 °F /  3.2 °C 27.9 °F /  -2.3 °C 30.2 in /  1023.2 hPa NNW 1 mph /  1.6 km/h 2 mph /  3.2 km/h 67 % 0 in /  0.0 mm
17:22 36.9 °F /  2.7 °C 28 °F /  -2.2 °C 30.2 in /  1023.2 hPa North 1 mph /  1.6 km/h 2 mph /  3.2 km/h 70 % 0 in /  0.0 mm
17:27 36.7 °F /  2.6 °C 27.9 °F /  -2.3 °C 30.2 in /  1023.6 hPa NNW 2 mph /  3.2 km/h 2 mph /  3.2 km/h 70 % 0 in /  0.0 mm
17:32 36.7 °F /  2.6 °C 27.9 °F /  -2.3 °C 30.2 in /  1023.6 hPa NNW 1 mph /  1.6 km/h 2 mph /  3.2 km/h 70 % 0 in /  0.0 mm
17:37 36.5 °F /  2.5 °C 27.7 °F /  -2.4 °C 30.2 in /  1023.6 hPa NW 1 mph /  1.6 km/h 4 mph /  6.4 km/h 70 % 0 in /  0.0 mm
17:42 36.1 °F /  2.3 °C 28 °F /  -2.2 °C 30.2 in /  1023.6 hPa NNE 2 mph /  3.2 km/h 4 mph /  6.4 km/h 72 % 0 in /  0.0 mm
17:47 36 °F /  2.2 °C 27.9 °F /  -2.3 °C 30.2 in /  1023.6 hPa NNW 1 mph /  1.6 km/h 4 mph /  6.4 km/h 72 % 0 in /  0.0 mm
17:52 36 °F /  2.2 °C 27.5 °F /  -2.5 °C 30.2 in /  1023.9 hPa Calm   4 mph /  6.4 km/h 71 % 0 in /  0.0 mm
17:57 36 °F /  2.2 °C 27.5 °F /  -2.5 °C 30.2 in /  1023.9 hPa NW 1 mph /  1.6 km/h 3 mph /  4.8 km/h 71 % 0 in /  0.0 mm
18:02 35.8 °F /  2.1 °C 27.3 °F /  -2.6 °C 30.2 in /  1023.9 hPa NW 1 mph /  1.6 km/h 3 mph /  4.8 km/h 71 % 0 in /  0.0 mm
18:07 35.6 °F /  2.0 °C 27.9 °F /  -2.3 °C 30.2 in /  1023.9 hPa NNW 1 mph /  1.6 km/h 2 mph /  3.2 km/h 73 % 0 in /  0.0 mm
18:12 35.4 °F /  1.9 °C 27.7 °F /  -2.4 °C 30.3 in /  1024.3 hPa NNW 2 mph /  3.2 km/h 5 mph /  8.0 km/h 73 % 0 in /  0.0 mm
18:17 35.6 °F /  2.0 °C 27.1 °F /  -2.7 °C 30.3 in /  1024.3 hPa NNW 5 mph /  8.0 km/h 5 mph /  8.0 km/h 71 % 0 in /  0.0 mm
18:22 35.4 °F /  1.9 °C 27 °F /  -2.8 °C 30.3 in /  1024.3 hPa NNW 3 mph /  4.8 km/h 6 mph /  9.7 km/h 71 % 0 in /  0.0 mm
18:32 35.4 °F /  1.9 °C 27 °F /  -2.8 °C 30.3 in /  1024.3 hPa NNW 6 mph /  9.7 km/h 7 mph /  11.3 km/h 71 % 0 in /  0.0 mm
18:37 35.4 °F /  1.9 °C 27 °F /  -2.8 °C 30.3 in /  1024.3 hPa North 5 mph /  8.0 km/h 7 mph /  11.3 km/h 71 % 0 in /  0.0 mm
18:42 35.2 °F /  1.8 °C 27.1 °F /  -2.7 °C 30.3 in /  1024.3 hPa NNW 3 mph /  4.8 km/h 10 mph /  16.1 km/h 72 % 0 in /  0.0 mm
18:47 35.1 °F /  1.7 °C 27 °F /  -2.8 °C 30.3 in /  1024.3 hPa NNE 2 mph /  3.2 km/h 10 mph /  16.1 km/h 72 % 0 in /  0.0 mm
18:57 34.9 °F /  1.6 °C 27.1 °F /  -2.7 °C 30.3 in /  1024.6 hPa Calm   10 mph /  16.1 km/h 73 % 0 in /  0.0 mm
19:02 34.9 °F /  1.6 °C 27.5 °F /  -2.5 °C 30.3 in /  1024.3 hPa Calm   10 mph /  16.1 km/h 74 % 0 in /  0.0 mm
19:07 34.7 °F /  1.5 °C 27.3 °F /  -2.6 °C 30.3 in /  1024.3 hPa North 7 mph /  11.3 km/h 7 mph /  11.3 km/h 74 % 0 in /  0.0 mm
19:12 34.7 °F /  1.5 °C 27.3 °F /  -2.6 °C 30.3 in /  1024.6 hPa NNW 1 mph /  1.6 km/h 7 mph /  11.3 km/h 74 % 0 in /  0.0 mm
19:17 34.5 °F /  1.4 °C 27.1 °F /  -2.7 °C 30.3 in /  1024.6 hPa NNE 3 mph /  4.8 km/h 7 mph /  11.3 km/h 74 % 0 in /  0.0 mm
19:22 34.3 °F /  1.3 °C 27.3 °F /  -2.6 °C 30.3 in /  1024.6 hPa NNW 2 mph /  3.2 km/h 7 mph /  11.3 km/h 75 % 0 in /  0.0 mm
19:27 34.3 °F /  1.3 °C 27.3 °F /  -2.6 °C 30.3 in /  1024.6 hPa North 5 mph /  8.0 km/h 6 mph /  9.7 km/h 75 % 0 in /  0.0 mm
19:32 34.2 °F /  1.2 °C 27.1 °F /  -2.7 °C 30.3 in /  1024.6 hPa North 5 mph /  8.0 km/h 6 mph /  9.7 km/h 75 % 0 in /  0.0 mm
19:37 34.2 °F /  1.2 °C 27.1 °F /  -2.7 °C 30.3 in /  1024.6 hPa NW 1 mph /  1.6 km/h 8 mph /  12.9 km/h 75 % 0 in /  0.0 mm
19:42 34.2 °F /  1.2 °C 27.3 °F /  -2.6 °C 30.3 in /  1024.6 hPa North 2 mph /  3.2 km/h 8 mph /  12.9 km/h 76 % 0 in /  0.0 mm
19:47 34 °F /  1.1 °C 27.1 °F /  -2.7 °C 30.3 in /  1024.9 hPa NNE 3 mph /  4.8 km/h 8 mph /  12.9 km/h 76 % 0 in /  0.0 mm
19:52 34 °F /  1.1 °C 27.1 °F /  -2.7 °C 30.3 in /  1024.9 hPa NNE 4 mph /  6.4 km/h 8 mph /  12.9 km/h 76 % 0 in /  0.0 mm
19:57 34 °F /  1.1 °C 27.1 °F /  -2.7 °C 30.3 in /  1024.9 hPa North 6 mph /  9.7 km/h 10 mph /  16.1 km/h 76 % 0 in /  0.0 mm
20:02 34 °F /  1.1 °C 27.1 °F /  -2.7 °C 30.3 in /  1024.9 hPa NNW 4 mph /  6.4 km/h 10 mph /  16.1 km/h 76 % 0 in /  0.0 mm
20:07 34 °F /  1.1 °C 27.1 °F /  -2.7 °C 30.3 in /  1024.9 hPa NNW 3 mph /  4.8 km/h 10 mph /  16.1 km/h 76 % 0 in /  0.0 mm
20:12 33.8 °F /  1.0 °C 27.3 °F /  -2.6 °C 30.3 in /  1024.6 hPa NNE 5 mph /  8.0 km/h 10 mph /  16.1 km/h 77 % 0 in /  0.0 mm
20:17 33.6 °F /  0.9 °C 27.1 °F /  -2.7 °C 30.3 in /  1024.9 hPa NNE 5 mph /  8.0 km/h 10 mph /  16.1 km/h 77 % 0 in /  0.0 mm
20:22 33.6 °F /  0.9 °C 27.1 °F /  -2.7 °C 30.3 in /  1024.6 hPa North 4 mph /  6.4 km/h 10 mph /  16.1 km/h 77 % 0 in /  0.0 mm
20:32 33.4 °F /  0.8 °C 27.3 °F /  -2.6 °C 30.3 in /  1024.9 hPa North 5 mph /  8.0 km/h 9 mph /  14.5 km/h 78 % 0 in /  0.0 mm
20:37 33.3 °F /  0.7 °C 27.1 °F /  -2.7 °C 30.3 in /  1024.9 hPa North 2 mph /  3.2 km/h 8 mph /  12.9 km/h 78 % 0 in /  0.0 mm
20:42 33.3 °F /  0.7 °C 27.1 °F /  -2.7 °C 30.3 in /  1024.9 hPa NNW 6 mph /  9.7 km/h 8 mph /  12.9 km/h 78 % 0 in /  0.0 mm
20:47 33.1 °F /  0.6 °C 27 °F /  -2.8 °C 30.3 in /  1024.9 hPa NE 2 mph /  3.2 km/h 8 mph /  12.9 km/h 78 % 0 in /  0.0 mm
20:52 33.1 °F /  0.6 °C 27 °F /  -2.8 °C 30.3 in /  1024.9 hPa NNW 1 mph /  1.6 km/h 8 mph /  12.9 km/h 78 % 0 in /  0.0 mm
20:57 32.9 °F /  0.5 °C 27.1 °F /  -2.7 °C 30.3 in /  1024.9 hPa NW 2 mph /  3.2 km/h 8 mph /  12.9 km/h 79 % 0 in /  0.0 mm
21:02 32.7 °F /  0.4 °C 27 °F /  -2.8 °C 30.3 in /  1024.9 hPa NE 5 mph /  8.0 km/h 8 mph /  12.9 km/h 79 % 0 in /  0.0 mm
21:07 32.7 °F /  0.4 °C 27 °F /  -2.8 °C 30.3 in /  1024.9 hPa NE 4 mph /  6.4 km/h 6 mph /  9.7 km/h 79 % 0 in /  0.0 mm
21:12 32.5 °F /  0.3 °C 26.8 °F /  -2.9 °C 30.3 in /  1024.9 hPa NNW 2 mph /  3.2 km/h 6 mph /  9.7 km/h 79 % 0 in /  0.0 mm
21:17 32.5 °F /  0.3 °C 26.8 °F /  -2.9 °C 30.3 in /  1025.3 hPa North 4 mph /  6.4 km/h 6 mph /  9.7 km/h 79 % 0 in /  0.0 mm
21:22 32.5 °F /  0.3 °C 27.1 °F /  -2.7 °C 30.3 in /  1025.3 hPa North 1 mph /  1.6 km/h 6 mph /  9.7 km/h 80 % 0 in /  0.0 mm
21:27 32.4 °F /  0.2 °C 27 °F /  -2.8 °C 30.3 in /  1025.3 hPa North 5 mph /  8.0 km/h 7 mph /  11.3 km/h 80 % 0 in /  0.0 mm
21:32 32.4 °F /  0.2 °C 27.1 °F /  -2.7 °C 30.3 in /  1024.9 hPa North 4 mph /  6.4 km/h 7 mph /  11.3 km/h 81 % 0 in /  0.0 mm
21:37 32.2 °F /  0.1 °C 27 °F /  -2.8 °C 30.3 in /  1024.9 hPa NNE 2 mph /  3.2 km/h 6 mph /  9.7 km/h 81 % 0 in /  0.0 mm
21:43 32.2 °F /  0.1 °C 27 °F /  -2.8 °C 30.3 in /  1024.9 hPa NE 3 mph /  4.8 km/h 6 mph /  9.7 km/h 81 % 0 in /  0.0 mm
21:52 32.2 °F /  0.1 °C 27 °F /  -2.8 °C 30.3 in /  1024.9 hPa North 2 mph /  3.2 km/h 8 mph /  12.9 km/h 81 % 0 in /  0.0 mm
21:57 32 °F /  0.0 °C 26.8 °F /  -2.9 °C 30.3 in /  1024.9 hPa NNW 5 mph /  8.0 km/h 8 mph /  12.9 km/h 81 % 0 in /  0.0 mm
22:02 32 °F /  0.0 °C 26.8 °F /  -2.9 °C 30.3 in /  1024.9 hPa North 5 mph /  8.0 km/h 8 mph /  12.9 km/h 81 % 0 in /  0.0 mm
22:07 32 °F /  0.0 °C 26.8 °F /  -2.9 °C 30.3 in /  1024.9 hPa North 6 mph /  9.7 km/h 8 mph /  12.9 km/h 81 % 0 in /  0.0 mm
22:12 32 °F /  0.0 °C 26.8 °F /  -2.9 °C 30.3 in /  1024.9 hPa NNE 6 mph /  9.7 km/h 8 mph /  12.9 km/h 81 % 0 in /  0.0 mm
22:17 32 °F /  0.0 °C 26.8 °F /  -2.9 °C 30.3 in /  1024.9 hPa NW 6 mph /  9.7 km/h 9 mph /  14.5 km/h 81 % 0 in /  0.0 mm
22:22 32 °F /  0.0 °C 26.8 °F /  -2.9 °C 30.3 in /  1024.9 hPa NNW 3 mph /  4.8 km/h 9 mph /  14.5 km/h 81 % 0 in /  0.0 mm
22:27 31.8 °F /  -0.1 °C 26.6 °F /  -3.0 °C 30.3 in /  1024.9 hPa NW 3 mph /  4.8 km/h 8 mph /  12.9 km/h 81 % 0 in /  0.0 mm
22:32 31.8 °F /  -0.1 °C 26.6 °F /  -3.0 °C 30.3 in /  1024.9 hPa NW 2 mph /  3.2 km/h 8 mph /  12.9 km/h 81 % 0 in /  0.0 mm
22:37 31.8 °F /  -0.1 °C 26.6 °F /  -3.0 °C 30.3 in /  1024.9 hPa NW 3 mph /  4.8 km/h 6 mph /  9.7 km/h 81 % 0 in /  0.0 mm
22:42 31.8 °F /  -0.1 °C 26.6 °F /  -3.0 °C 30.3 in /  1025.3 hPa NNW 1 mph /  1.6 km/h 6 mph /  9.7 km/h 81 % 0 in /  0.0 mm
22:47 31.8 °F /  -0.1 °C 26.6 °F /  -3.0 °C 30.3 in /  1025.3 hPa NNE 2 mph /  3.2 km/h 5 mph /  8.0 km/h 81 % 0 in /  0.0 mm
22:52 32 °F /  0.0 °C 26.8 °F /  -2.9 °C 30.3 in /  1025.3 hPa NNE 2 mph /  3.2 km/h 5 mph /  8.0 km/h 81 % 0 in /  0.0 mm
22:57 32 °F /  0.0 °C 26.8 °F /  -2.9 °C 30.3 in /  1025.3 hPa NNW 1 mph /  1.6 km/h 4 mph /  6.4 km/h 81 % 0 in /  0.0 mm
23:02 32 °F /  0.0 °C 26.8 °F /  -2.9 °C 30.3 in /  1025.3 hPa Calm   4 mph /  6.4 km/h 81 % 0 in /  0.0 mm
23:07 32 °F /  0.0 °C 26.8 °F /  -2.9 °C 30.3 in /  1025.3 hPa NE 1 mph /  1.6 km/h 3 mph /  4.8 km/h 81 % 0 in /  0.0 mm
23:12 32 °F /  0.0 °C 26.8 °F /  -2.9 °C 30.3 in /  1025.3 hPa Calm   3 mph /  4.8 km/h 81 % 0 in /  0.0 mm
23:17 32 °F /  0.0 °C 26.8 °F /  -2.9 °C 30.3 in /  1025.6 hPa Calm   2 mph /  3.2 km/h 81 % 0 in /  0.0 mm
23:22 31.8 °F /  -0.1 °C 26.6 °F /  -3.0 °C 30.3 in /  1025.6 hPa Calm   2 mph /  3.2 km/h 81 % 0 in /  0.0 mm
23:27 32 °F /  0.0 °C 26.8 °F /  -2.9 °C 30.3 in /  1025.6 hPa Calm   2 mph /  3.2 km/h 81 % 0 in /  0.0 mm
23:32 32 °F /  0.0 °C 26.6 °F /  -3.0 °C 30.3 in /  1025.6 hPa Calm   2 mph /  3.2 km/h 80 % 0 in /  0.0 mm
23:37 31.8 °F /  -0.1 °C 26.6 °F /  -3.0 °C 30.3 in /  1025.6 hPa Calm   3 mph /  4.8 km/h 81 % 0 in /  0.0 mm
23:42 31.8 °F /  -0.1 °C 26.6 °F /  -3.0 °C 30.3 in /  1025.6 hPa NNE 1 mph /  1.6 km/h 3 mph /  4.8 km/h 81 % 0 in /  0.0 mm
23:47 31.6 °F /  -0.2 °C 26.8 °F /  -2.9 °C 30.3 in /  1025.6 hPa NE 3 mph /  4.8 km/h 4 mph /  6.4 km/h 82 % 0 in /  0.0 mm
23:52 31.6 °F /  -0.2 °C 26.8 °F /  -2.9 °C 30.3 in /  1025.6 hPa NE 1 mph /  1.6 km/h 4 mph /  6.4 km/h 82 % 0 in /  0.0 mm
23:57 31.5 °F /  -0.3 °C 26.6 °F /  -3.0 °C 30.3 in /  1025.6 hPa Calm   4 mph /  6.4 km/h 82 % 0 in /  0.0 mm
Meteo18
Compliments of Weather Underground - 4 mb

Script developed by  Jim McMurry - jmcmurry@mwt.net Adapted for the template by  Wim van der Kuil - Leuven-Template.eu

You find our weather info also at:

European Weather Network

Weather Underground

Equipment we use:

Weather-station
Davis Vue

Weather-program
Meteohub

Weather-server
Raspberry PI 2 B+

Provider
1 and 1

Davis Vue

Meteohub

Raspberry PI 2 B+

1 and 1